Flight Track Log - Related Links

Times and Time Zones

All times are in EDT time to prevent confusion due to time zone crossing. See the N509QS flight status page for this flight to view local times or setup timezone preferences in your user account.

Time Position Orientation Groundspeed Altitude Reporting Facility
EDT Latitude Longitude Course Direction KTS MPH feet Rate Location/Type
Mon 12:37:37 PM 32.9000 -97.0500 180° South 164 189 1,000  Level Dallas / Fort Worth TRACON
Mon 12:38:19 PM 32.8500 -97.0500 180° South 196 226 4,500 4,376 Climbing Dallas / Fort Worth TRACON
Mon 12:39:50 PM 32.7472 -97.0553 182° South 242 278 10,700 3,179 Climbing Fort Worth Center
Mon 12:40:50 PM 32.6658 -97.0556 180° South 302 348 12,500 2,550 Climbing Fort Worth Center
Mon 12:41:50 PM 32.5531 -97.0561 180° South 360 414 15,800 2,700 Climbing Fort Worth Center
Mon 12:42:50 PM 32.4508 -97.0589 181° South 399 459 17,900 2,700 Climbing Fort Worth Center
Mon 12:43:50 PM 32.3214 -97.0594 180° South 419 482 21,200 2,550 Climbing Fort Worth Center
Mon 12:44:50 PM 32.2003 -97.0647 182° South 435 501 23,000 1,400 Climbing Fort Worth Center
Mon 12:45:50 PM 32.0750 -97.0678 181° South 442 509 24,000 500 Climbing Fort Worth Center
Mon 12:46:50 PM 31.9792 -97.0706 181° South 442 509 24,000  Level Fort Worth Center
Mon 12:47:50 PM 31.8475 -97.0758 182° South 431 496 24,000  Level Fort Worth Center
Mon 12:48:34 PM 31.7447 -97.0775 181° South 443 510 24,000  Level Houston Center
Mon 12:49:36 PM 31.6197 -97.0803 181° South 445 512 24,000  Level Houston Center
Mon 12:50:38 PM 31.4942 -97.0942 185° South 447 514 24,000  Level Houston Center
Mon 12:51:40 PM 31.3742 -97.1442 200° South 452 520 24,000  Level Houston Center
Mon 12:52:42 PM 31.2556 -97.1906 198° South 447 514 24,000  Level Houston Center
Mon 12:53:44 PM 31.1394 -97.2367 199° South 438 504 24,000  Level Houston Center
Mon 12:54:46 PM 31.0231 -97.2831 199° South 439 505 24,000  Level Houston Center
Mon 12:55:48 PM 30.8844 -97.3364 198° South 466 536 24,000  Level Houston Center
Mon 12:56:50 PM 30.7686 -97.3800 198° South 442 509 24,000  Level Houston Center
Mon 12:57:52 PM 30.6506 -97.4253 198° South 441 507 24,000  Level Houston Center
Mon 12:58:54 PM 30.5319 -97.4725 199° South 446 513 24,000 -581 Level Houston Center
Mon 12:59:56 PM 30.4028 -97.5214 198° South 405 466 22,800 -1,452 Descending Houston Center
Mon 01:00:58 PM 30.3108 -97.5767 207° Southwest 368 423 21,000 -1,694 Descending Houston Center
Mon 01:02:00 PM 30.2253 -97.6375 212° Southwest 360 414 19,300 -1,597 Descending Houston Center
Mon 01:03:02 PM 30.1428 -97.6933 210° Southwest 341 392 17,700 -1,667 Descending Houston Center
Mon 01:03:48 PM 30.0761 -97.7400 211° Southwest 346 398 16,300 -1,682 Descending Houston Center
Mon 01:04:49 PM 29.9972 -97.7936 210° Southwest 332 382 14,700 -1,525 Descending Houston Center
Mon 01:05:50 PM 29.9206 -97.8469 211° Southwest 318 366 13,200 -1,279 Descending Houston Center
Mon 01:06:51 PM 29.8661 -97.9381 235° Southwest 349 402 12,100 -1,082 Descending Houston Center
Mon 01:07:52 PM 29.8247 -98.0325 243° Southwest 321 369 11,000 -1,426 Descending Houston Center
Mon 01:08:53 PM 29.7906 -98.1139 244° Southwest 277 319 9,200 -1,736 Descending Houston Center
Mon 01:09:53 PM 29.7692 -98.2008 254° West 279 321 7,500 -1,587 Descending Houston Center
Mon 01:10:54 PM 29.7561 -98.2867 260° West 275 316 6,000 -738 Descending Houston Center
Mon 01:11:55 PM 29.7414 -98.3750 259° West 262 302 6,000 -295 Level Houston Center
Mon 01:12:56 PM 29.7297 -98.4533 260° West 242 278 5,400 -885 Descending Houston Center
Mon 01:13:57 PM 29.7194 -98.5244 261° West 225 259 4,200 -984 Descending Houston Center
Mon 01:14:58 PM 29.7014 -98.5794 249° West 164 189 3,400 -590 Descending Houston Center
Mon 01:15:59 PM 29.6642 -98.6103 216° Southwest 159 183 3,000 -198 Descending Houston Center
Mon 01:16:59 PM 29.6247 -98.5911 157° South 154 177 3,000 -133 Level Houston Center
Mon 01:17:29 PM 29.6111 -98.5728 130° Southeast 156 180 2,800 -689 Descending Houston Center
Mon 01:18:00 PM 29.5961 -98.5536 132° Southeast 157 181 2,300 -774 Descending Houston Center
Mon 01:18:31 PM 29.5814 -98.5344 131° Southeast 151 174 2,000 -689 Descending Houston Center
Mon 01:19:01 PM 29.5722 -98.5228 132° Southeast 126 145 1,600 -590 Descending Houston Center
Mon 01:19:32 PM 29.5606 -98.5075 131° Southeast 120 138 1,400 -689 Descending Houston Center
Mon 01:20:02 PM 29.5483 -98.4919 132° Southeast 119 137 900 -581 Descending Houston Center
Mon 01:20:34 PM 29.5403 -98.4806 129° Southeast 121 139 800 -188 Descending Houston Center
Mon 01:22:00 PM 29.5340 -98.4691 172° South  Level Estimated
Mon 01:29:00 PM 29.5333 -98.4667 12° North  Level FlightAware Approximate

Login

Don't have an account? Register now (free) for customized features, flight alerts, and more!